sensor_id;sensor_type;location;lat;lon;timestamp;temperature;humidity
26952;DHT22;14507;52.418;13.398;2023-02-01T00:01:26;4.70;99.90
26952;DHT22;14507;52.418;13.398;2023-02-01T00:03:52;4.70;99.90
26952;DHT22;14507;52.418;13.398;2023-02-01T00:06:18;4.70;99.90
26952;DHT22;14507;52.418;13.398;2023-02-01T00:08:43;4.70;99.90
26952;DHT22;14507;52.418;13.398;2023-02-01T00:11:11;4.70;99.90
26952;DHT22;14507;52.418;13.398;2023-02-01T00:13:40;4.70;99.90
26952;DHT22;14507;52.418;13.398;2023-02-01T00:16:08;4.80;99.90
26952;DHT22;14507;52.418;13.398;2023-02-01T00:18:35;4.70;99.90
26952;DHT22;14507;52.418;13.398;2023-02-01T00:21:01;4.70;99.90
26952;DHT22;14507;52.418;13.398;2023-02-01T00:23:27;4.80;99.90
26952;DHT22;14507;52.418;13.398;2023-02-01T00:25:53;4.70;99.90
26952;DHT22;14507;52.418;13.398;2023-02-01T00:28:18;4.70;99.90
26952;DHT22;14507;52.418;13.398;2023-02-01T00:30:44;4.70;99.90
26952;DHT22;14507;52.418;13.398;2023-02-01T00:33:10;4.70;99.90
26952;DHT22;14507;52.418;13.398;2023-02-01T00:35:35;4.80;99.90
26952;DHT22;14507;52.418;13.398;2023-02-01T00:38:01;4.90;99.90
26952;DHT22;14507;52.418;13.398;2023-02-01T00:40:27;4.80;99.90
26952;DHT22;14507;52.418;13.398;2023-02-01T00:42:52;4.80;99.90
26952;DHT22;14507;52.418;13.398;2023-02-01T00:45:19;4.80;99.90
26952;DHT22;14507;52.418;13.398;2023-02-01T00:47:45;4.80;99.90
26952;DHT22;14507;52.418;13.398;2023-02-01T00:50:11;4.80;99.90
26952;DHT22;14507;52.418;13.398;2023-02-01T00:52:36;4.90;99.90
26952;DHT22;14507;52.418;13.398;2023-02-01T00:55:02;5.30;99.90
26952;DHT22;14507;52.418;13.398;2023-02-01T00:57:28;4.80;99.90
26952;DHT22;14507;52.418;13.398;2023-02-01T00:59:53;4.70;99.90
26952;DHT22;14507;52.418;13.398;2023-02-01T01:02:19;4.70;99.90
26952;DHT22;14507;52.418;13.398;2023-02-01T01:04:45;4.70;99.90
26952;DHT22;14507;52.418;13.398;2023-02-01T01:07:10;4.70;99.90
26952;DHT22;14507;52.418;13.398;2023-02-01T01:09:36;4.60;99.90
26952;DHT22;14507;52.418;13.398;2023-02-01T01:12:02;4.70;99.90
26952;DHT22;14507;52.418;13.398;2023-02-01T01:14:32;4.60;99.90
26952;DHT22;14507;52.418;13.398;2023-02-01T01:16:57;4.60;99.90
26952;DHT22;14507;52.418;13.398;2023-02-01T01:19:23;4.60;99.90
26952;DHT22;14507;52.418;13.398;2023-02-01T01:21:48;4.60;99.90
26952;DHT22;14507;52.418;13.398;2023-02-01T01:24:14;4.60;99.90
26952;DHT22;14507;52.418;13.398;2023-02-01T01:26:40;4.50;99.90
26952;DHT22;14507;52.418;13.398;2023-02-01T01:29:06;4.60;99.90
26952;DHT22;14507;52.418;13.398;2023-02-01T01:31:31;4.50;99.90
26952;DHT22;14507;52.418;13.398;2023-02-01T01:33:59;4.60;99.90
26952;DHT22;14507;52.418;13.398;2023-02-01T01:36:26;4.60;99.90
26952;DHT22;14507;52.418;13.398;2023-02-01T01:38:52;4.50;99.90
26952;DHT22;14507;52.418;13.398;2023-02-01T01:41:20;4.50;99.90
26952;DHT22;14507;52.418;13.398;2023-02-01T01:44:03;4.50;99.90
26952;DHT22;14507;52.418;13.398;2023-02-01T01:46:35;4.60;99.90
26952;DHT22;14507;52.418;13.398;2023-02-01T01:49:21;4.50;99.90
26952;DHT22;14507;52.418;13.398;2023-02-01T01:51:52;4.60;99.90
26952;DHT22;14507;52.418;13.398;2023-02-01T01:54:23;4.50;99.90
26952;DHT22;14507;52.418;13.398;2023-02-01T01:56:55;4.60;99.90
26952;DHT22;14507;52.418;13.398;2023-02-01T01:59:24;4.70;99.90
26952;DHT22;14507;52.418;13.398;2023-02-01T02:01:50;4.60;99.90
26952;DHT22;14507;52.418;13.398;2023-02-01T02:04:16;4.70;99.90
26952;DHT22;14507;52.418;13.398;2023-02-01T02:06:47;4.60;99.90
26952;DHT22;14507;52.418;13.398;2023-02-01T02:09:14;4.70;99.90
26952;DHT22;14507;52.418;13.398;2023-02-01T02:11:40;4.70;99.90
26952;DHT22;14507;52.418;13.398;2023-02-01T02:14:09;4.70;99.90
26952;DHT22;14507;52.418;13.398;2023-02-01T02:16:51;4.70;99.90
26952;DHT22;14507;52.418;13.398;2023-02-01T02:25:37;4.70;99.90
26952;DHT22;14507;52.418;13.398;2023-02-01T02:36:54;4.70;99.90
26952;DHT22;14507;52.418;13.398;2023-02-01T02:39:36;4.90;99.90
26952;DHT22;14507;52.418;13.398;2023-02-01T02:45:09;4.80;99.90
26952;DHT22;14507;52.418;13.398;2023-02-01T02:50:54;4.70;99.90
26952;DHT22;14507;52.418;13.398;2023-02-01T02:53:51;4.70;99.90
26952;DHT22;14507;52.418;13.398;2023-02-01T02:56:38;4.70;99.90
26952;DHT22;14507;52.418;13.398;2023-02-01T02:59:24;4.70;99.90
26952;DHT22;14507;52.418;13.398;2023-02-01T03:02:10;4.70;99.90
26952;DHT22;14507;52.418;13.398;2023-02-01T03:04:55;4.70;99.90
26952;DHT22;14507;52.418;13.398;2023-02-01T03:12:50;4.70;99.90
26952;DHT22;14507;52.418;13.398;2023-02-01T03:18:00;4.80;99.90
26952;DHT22;14507;52.418;13.398;2023-02-01T03:20:27;4.80;99.90
26952;DHT22;14507;52.418;13.398;2023-02-01T03:22:55;4.80;99.90
26952;DHT22;14507;52.418;13.398;2023-02-01T03:25:26;4.80;99.90
26952;DHT22;14507;52.418;13.398;2023-02-01T03:28:05;4.80;99.90
26952;DHT22;14507;52.418;13.398;2023-02-01T03:33:05;4.90;99.90
26952;DHT22;14507;52.418;13.398;2023-02-01T03:35:44;4.80;99.90
26952;DHT22;14507;52.418;13.398;2023-02-01T03:49:17;4.90;99.90
26952;DHT22;14507;52.418;13.398;2023-02-01T03:51:44;5.00;99.90
26952;DHT22;14507;52.418;13.398;2023-02-01T03:54:13;4.90;99.90
26952;DHT22;14507;52.418;13.398;2023-02-01T03:56:42;4.90;99.90
26952;DHT22;14507;52.418;13.398;2023-02-01T03:59:10;5.00;99.90
26952;DHT22;14507;52.418;13.398;2023-02-01T04:01:36;4.90;99.90
26952;DHT22;14507;52.418;13.398;2023-02-01T04:04:02;4.90;99.90
26952;DHT22;14507;52.418;13.398;2023-02-01T04:06:27;4.90;99.90
26952;DHT22;14507;52.418;13.398;2023-02-01T04:08:53;4.90;99.90
26952;DHT22;14507;52.418;13.398;2023-02-01T04:11:19;4.90;99.90
26952;DHT22;14507;52.418;13.398;2023-02-01T04:13:44;4.90;99.90
26952;DHT22;14507;52.418;13.398;2023-02-01T04:16:10;5.00;99.90
26952;DHT22;14507;52.418;13.398;2023-02-01T04:18:36;4.90;99.90
26952;DHT22;14507;52.418;13.398;2023-02-01T04:21:02;4.90;99.90
26952;DHT22;14507;52.418;13.398;2023-02-01T04:23:28;5.00;99.90
26952;DHT22;14507;52.418;13.398;2023-02-01T04:25:59;5.00;99.90
26952;DHT22;14507;52.418;13.398;2023-02-01T04:28:24;5.10;99.90
26952;DHT22;14507;52.418;13.398;2023-02-01T04:30:50;5.10;99.90
26952;DHT22;14507;52.418;13.398;2023-02-01T04:33:15;5.10;99.90
26952;DHT22;14507;52.418;13.398;2023-02-01T04:35:41;5.10;99.90
26952;DHT22;14507;52.418;13.398;2023-02-01T04:38:07;5.10;99.90
26952;DHT22;14507;52.418;13.398;2023-02-01T04:40:33;5.20;99.90
26952;DHT22;14507;52.418;13.398;2023-02-01T04:43:00;5.20;99.90
26952;DHT22;14507;52.418;13.398;2023-02-01T04:45:25;5.20;99.90
26952;DHT22;14507;52.418;13.398;2023-02-01T04:47:51;5.20;99.90
26952;DHT22;14507;52.418;13.398;2023-02-01T04:50:17;5.20;99.90
26952;DHT22;14507;52.418;13.398;2023-02-01T04:52:42;5.30;99.90
26952;DHT22;14507;52.418;13.398;2023-02-01T04:55:11;5.30;99.90
26952;DHT22;14507;52.418;13.398;2023-02-01T04:57:39;5.30;99.90
26952;DHT22;14507;52.418;13.398;2023-02-01T05:00:07;5.30;99.90
26952;DHT22;14507;52.418;13.398;2023-02-01T05:02:33;5.30;99.90
26952;DHT22;14507;52.418;13.398;2023-02-01T05:04:59;5.30;99.90
26952;DHT22;14507;52.418;13.398;2023-02-01T05:07:24;5.40;99.90
26952;DHT22;14507;52.418;13.398;2023-02-01T05:09:50;5.30;99.90
26952;DHT22;14507;52.418;13.398;2023-02-01T05:12:16;5.40;99.90
26952;DHT22;14507;52.418;13.398;2023-02-01T05:15:00;5.40;99.90
26952;DHT22;14507;52.418;13.398;2023-02-01T05:17:26;5.40;99.90
26952;DHT22;14507;52.418;13.398;2023-02-01T05:19:51;5.40;99.90
26952;DHT22;14507;52.418;13.398;2023-02-01T05:22:17;5.40;99.90
26952;DHT22;14507;52.418;13.398;2023-02-01T05:24:43;5.40;99.90
26952;DHT22;14507;52.418;13.398;2023-02-01T05:27:09;5.40;99.90
26952;DHT22;14507;52.418;13.398;2023-02-01T05:29:34;5.40;99.90
26952;DHT22;14507;52.418;13.398;2023-02-01T05:32:00;5.40;99.90
26952;DHT22;14507;52.418;13.398;2023-02-01T05:34:25;5.40;99.90
26952;DHT22;14507;52.418;13.398;2023-02-01T05:36:51;5.40;99.90
26952;DHT22;14507;52.418;13.398;2023-02-01T05:39:17;5.40;99.90
26952;DHT22;14507;52.418;13.398;2023-02-01T05:41:43;5.40;99.90
26952;DHT22;14507;52.418;13.398;2023-02-01T05:44:09;5.40;99.90
26952;DHT22;14507;52.418;13.398;2023-02-01T05:46:35;5.40;99.90
26952;DHT22;14507;52.418;13.398;2023-02-01T05:49:01;5.40;99.90
26952;DHT22;14507;52.418;13.398;2023-02-01T05:51:27;5.50;99.90
26952;DHT22;14507;52.418;13.398;2023-02-01T05:53:52;5.40;99.90
26952;DHT22;14507;52.418;13.398;2023-02-01T05:56:18;5.50;99.90
26952;DHT22;14507;52.418;13.398;2023-02-01T05:58:44;5.40;99.90
26952;DHT22;14507;52.418;13.398;2023-02-01T06:01:09;5.50;99.90
26952;DHT22;14507;52.418;13.398;2023-02-01T06:03:35;5.40;99.90
26952;DHT22;14507;52.418;13.398;2023-02-01T06:06:01;5.50;99.90
26952;DHT22;14507;52.418;13.398;2023-02-01T06:08:27;5.50;99.90
26952;DHT22;14507;52.418;13.398;2023-02-01T06:11:01;5.50;99.90
26952;DHT22;14507;52.418;13.398;2023-02-01T06:13:27;5.50;99.90
26952;DHT22;14507;52.418;13.398;2023-02-01T06:15:53;5.50;99.90
26952;DHT22;14507;52.418;13.398;2023-02-01T06:18:19;5.50;99.90
26952;DHT22;14507;52.418;13.398;2023-02-01T06:20:44;5.50;99.90
26952;DHT22;14507;52.418;13.398;2023-02-01T06:23:10;5.50;99.90
26952;DHT22;14507;52.418;13.398;2023-02-01T06:25:36;5.50;99.90
26952;DHT22;14507;52.418;13.398;2023-02-01T06:28:02;5.40;99.90
26952;DHT22;14507;52.418;13.398;2023-02-01T06:30:31;5.40;99.90
26952;DHT22;14507;52.418;13.398;2023-02-01T06:32:57;5.40;99.90
26952;DHT22;14507;52.418;13.398;2023-02-01T06:35:22;5.40;99.90
26952;DHT22;14507;52.418;13.398;2023-02-01T06:37:48;5.40;99.90
26952;DHT22;14507;52.418;13.398;2023-02-01T06:40:14;5.40;99.90
26952;DHT22;14507;52.418;13.398;2023-02-01T06:42:39;5.40;99.90
26952;DHT22;14507;52.418;13.398;2023-02-01T06:45:05;5.40;99.90
26952;DHT22;14507;52.418;13.398;2023-02-01T06:47:32;5.40;99.90
26952;DHT22;14507;52.418;13.398;2023-02-01T06:49:58;5.40;99.90
26952;DHT22;14507;52.418;13.398;2023-02-01T06:52:23;5.40;99.90
26952;DHT22;14507;52.418;13.398;2023-02-01T06:54:49;5.40;99.90
26952;DHT22;14507;52.418;13.398;2023-02-01T06:57:14;5.30;99.90
26952;DHT22;14507;52.418;13.398;2023-02-01T06:59:40;5.30;99.90
26952;DHT22;14507;52.418;13.398;2023-02-01T07:02:08;5.30;99.90
26952;DHT22;14507;52.418;13.398;2023-02-01T07:04:34;5.50;99.90
26952;DHT22;14507;52.418;13.398;2023-02-01T07:07:00;5.30;99.90
26952;DHT22;14507;52.418;13.398;2023-02-01T07:09:25;5.30;99.90
26952;DHT22;14507;52.418;13.398;2023-02-01T07:11:51;5.30;99.90
26952;DHT22;14507;52.418;13.398;2023-02-01T07:14:16;5.30;99.90
26952;DHT22;14507;52.418;13.398;2023-02-01T07:16:42;5.30;99.90
26952;DHT22;14507;52.418;13.398;2023-02-01T07:19:08;5.30;99.90
26952;DHT22;14507;52.418;13.398;2023-02-01T07:21:33;5.40;99.90
26952;DHT22;14507;52.418;13.398;2023-02-01T07:23:59;5.40;99.90
26952;DHT22;14507;52.418;13.398;2023-02-01T07:26:25;5.40;99.90
26952;DHT22;14507;52.418;13.398;2023-02-01T07:28:50;5.40;99.90
26952;DHT22;14507;52.418;13.398;2023-02-01T07:31:18;5.40;99.90
26952;DHT22;14507;52.418;13.398;2023-02-01T07:33:46;5.40;99.90
26952;DHT22;14507;52.418;13.398;2023-02-01T07:36:15;5.30;99.90
26952;DHT22;14507;52.418;13.398;2023-02-01T07:38:41;5.40;99.90
26952;DHT22;14507;52.418;13.398;2023-02-01T07:41:07;5.40;99.90
26952;DHT22;14507;52.418;13.398;2023-02-01T07:43:33;5.40;99.90
26952;DHT22;14507;52.418;13.398;2023-02-01T07:45:59;5.40;99.90
26952;DHT22;14507;52.418;13.398;2023-02-01T07:48:26;5.40;99.90
26952;DHT22;14507;52.418;13.398;2023-02-01T07:51:00;5.40;99.90
26952;DHT22;14507;52.418;13.398;2023-02-01T07:53:26;5.40;99.90
26952;DHT22;14507;52.418;13.398;2023-02-01T07:55:53;5.40;99.90
26952;DHT22;14507;52.418;13.398;2023-02-01T07:58:19;5.40;99.90
26952;DHT22;14507;52.418;13.398;2023-02-01T08:00:44;5.30;99.90
26952;DHT22;14507;52.418;13.398;2023-02-01T08:03:29;5.20;99.90
26952;DHT22;14507;52.418;13.398;2023-02-01T08:05:55;5.20;99.90
26952;DHT22;14507;52.418;13.398;2023-02-01T08:08:21;5.20;99.90
26952;DHT22;14507;52.418;13.398;2023-02-01T08:10:47;5.10;99.90
26952;DHT22;14507;52.418;13.398;2023-02-01T08:13:12;5.00;99.90
26952;DHT22;14507;52.418;13.398;2023-02-01T08:15:38;5.00;99.90
26952;DHT22;14507;52.418;13.398;2023-02-01T08:18:04;5.20;99.90
26952;DHT22;14507;52.418;13.398;2023-02-01T08:20:30;4.90;99.90
26952;DHT22;14507;52.418;13.398;2023-02-01T08:22:55;4.80;99.90
26952;DHT22;14507;52.418;13.398;2023-02-01T08:25:22;4.80;99.90
26952;DHT22;14507;52.418;13.398;2023-02-01T08:27:48;4.90;99.90
26952;DHT22;14507;52.418;13.398;2023-02-01T08:30:14;4.70;99.90
26952;DHT22;14507;52.418;13.398;2023-02-01T08:32:40;4.70;99.90
26952;DHT22;14507;52.418;13.398;2023-02-01T08:35:06;4.60;99.90
26952;DHT22;14507;52.418;13.398;2023-02-01T08:37:31;4.60;99.90
26952;DHT22;14507;52.418;13.398;2023-02-01T08:39:57;4.60;99.90
26952;DHT22;14507;52.418;13.398;2023-02-01T08:42:23;4.70;99.90
26952;DHT22;14507;52.418;13.398;2023-02-01T08:45:08;4.60;99.90
26952;DHT22;14507;52.418;13.398;2023-02-01T08:47:34;4.60;99.90
26952;DHT22;14507;52.418;13.398;2023-02-01T08:50:00;4.60;99.90
26952;DHT22;14507;52.418;13.398;2023-02-01T08:52:26;4.70;99.90
26952;DHT22;14507;52.418;13.398;2023-02-01T08:54:52;4.60;99.90
26952;DHT22;14507;52.418;13.398;2023-02-01T08:57:17;4.70;99.90
26952;DHT22;14507;52.418;13.398;2023-02-01T08:59:43;4.70;99.90
26952;DHT22;14507;52.418;13.398;2023-02-01T09:02:14;4.70;99.90
26952;DHT22;14507;52.418;13.398;2023-02-01T09:04:40;4.60;99.90
26952;DHT22;14507;52.418;13.398;2023-02-01T09:07:07;4.70;99.90
26952;DHT22;14507;52.418;13.398;2023-02-01T09:09:33;4.70;99.90
26952;DHT22;14507;52.418;13.398;2023-02-01T09:11:59;4.70;99.90
26952;DHT22;14507;52.418;13.398;2023-02-01T09:14:24;4.70;99.90
26952;DHT22;14507;52.418;13.398;2023-02-01T09:16:50;4.70;99.90
26952;DHT22;14507;52.418;13.398;2023-02-01T09:19:16;4.60;99.90
26952;DHT22;14507;52.418;13.398;2023-02-01T09:21:41;4.60;99.90
26952;DHT22;14507;52.418;13.398;2023-02-01T09:24:10;4.70;99.90
26952;DHT22;14507;52.418;13.398;2023-02-01T09:26:36;4.70;99.90
26952;DHT22;14507;52.418;13.398;2023-02-01T09:29:02;4.70;99.90
26952;DHT22;14507;52.418;13.398;2023-02-01T09:31:29;4.70;99.90
26952;DHT22;14507;52.418;13.398;2023-02-01T09:33:55;4.70;99.90
26952;DHT22;14507;52.418;13.398;2023-02-01T09:36:21;4.70;99.90
26952;DHT22;14507;52.418;13.398;2023-02-01T09:38:48;5.80;99.90
26952;DHT22;14507;52.418;13.398;2023-02-01T09:47:16;4.90;99.90
26952;DHT22;14507;52.418;13.398;2023-02-01T09:49:59;4.90;99.90
26952;DHT22;14507;52.418;13.398;2023-02-01T09:52:40;4.90;99.90
26952;DHT22;14507;52.418;13.398;2023-02-01T09:55:15;4.80;99.90
26952;DHT22;14507;52.418;13.398;2023-02-01T09:58:07;4.90;99.90
26952;DHT22;14507;52.418;13.398;2023-02-01T10:00:36;4.90;99.90
26952;DHT22;14507;52.418;13.398;2023-02-01T10:03:03;5.00;99.90
26952;DHT22;14507;52.418;13.398;2023-02-01T10:08:24;4.90;99.90
26952;DHT22;14507;52.418;13.398;2023-02-01T10:10:54;4.90;99.90
26952;DHT22;14507;52.418;13.398;2023-02-01T10:13:46;4.90;99.90
26952;DHT22;14507;52.418;13.398;2023-02-01T10:16:19;5.00;99.90
26952;DHT22;14507;52.418;13.398;2023-02-01T10:18:50;5.00;99.90
26952;DHT22;14507;52.418;13.398;2023-02-01T10:21:41;5.00;99.90
26952;DHT22;14507;52.418;13.398;2023-02-01T10:27:19;5.00;99.90
26952;DHT22;14507;52.418;13.398;2023-02-01T10:29:54;5.10;99.90
26952;DHT22;14507;52.418;13.398;2023-02-01T10:32:29;5.20;99.90
26952;DHT22;14507;52.418;13.398;2023-02-01T10:35:08;5.20;99.90
26952;DHT22;14507;52.418;13.398;2023-02-01T10:37:41;5.30;99.90
26952;DHT22;14507;52.418;13.398;2023-02-01T10:40:25;5.30;99.90
26952;DHT22;14507;52.418;13.398;2023-02-01T10:43:00;5.30;99.90
26952;DHT22;14507;52.418;13.398;2023-02-01T10:45:32;5.30;99.90
26952;DHT22;14507;52.418;13.398;2023-02-01T10:48:00;5.20;99.90
26952;DHT22;14507;52.418;13.398;2023-02-01T10:55:47;5.10;99.90
26952;DHT22;14507;52.418;13.398;2023-02-01T10:58:19;5.10;99.90
26952;DHT22;14507;52.418;13.398;2023-02-01T11:01:02;5.20;99.90
26952;DHT22;14507;52.418;13.398;2023-02-01T11:09:30;5.20;99.90
26952;DHT22;14507;52.418;13.398;2023-02-01T11:11:58;5.20;99.90
26952;DHT22;14507;52.418;13.398;2023-02-01T11:16:53;5.30;99.90
26952;DHT22;14507;52.418;13.398;2023-02-01T11:19:19;5.40;99.90
26952;DHT22;14507;52.418;13.398;2023-02-01T11:21:50;5.50;99.90
26952;DHT22;14507;52.418;13.398;2023-02-01T11:24:34;5.60;99.90
26952;DHT22;14507;52.418;13.398;2023-02-01T11:27:03;5.60;99.90
26952;DHT22;14507;52.418;13.398;2023-02-01T11:29:36;5.70;99.90
26952;DHT22;14507;52.418;13.398;2023-02-01T11:32:03;5.80;99.90
26952;DHT22;14507;52.418;13.398;2023-02-01T11:34:43;5.90;99.90
26952;DHT22;14507;52.418;13.398;2023-02-01T11:37:24;5.90;99.90
26952;DHT22;14507;52.418;13.398;2023-02-01T11:40:00;6.00;99.90
26952;DHT22;14507;52.418;13.398;2023-02-01T11:42:27;6.10;99.90
26952;DHT22;14507;52.418;13.398;2023-02-01T11:45:18;6.20;99.90
26952;DHT22;14507;52.418;13.398;2023-02-01T11:47:44;6.20;99.90
26952;DHT22;14507;52.418;13.398;2023-02-01T12:04:10;6.40;99.90
26952;DHT22;14507;52.418;13.398;2023-02-01T12:06:51;6.40;99.90
26952;DHT22;14507;52.418;13.398;2023-02-01T12:17:30;6.50;99.90
26952;DHT22;14507;52.418;13.398;2023-02-01T12:20:04;6.60;99.90
26952;DHT22;14507;52.418;13.398;2023-02-01T12:25:28;6.60;99.90
26952;DHT22;14507;52.418;13.398;2023-02-01T12:28:20;6.70;99.90
26952;DHT22;14507;52.418;13.398;2023-02-01T12:39:32;6.90;99.90
26952;DHT22;14507;52.418;13.398;2023-02-01T12:42:18;6.90;99.90
26952;DHT22;14507;52.418;13.398;2023-02-01T12:44:52;7.00;99.90
26952;DHT22;14507;52.418;13.398;2023-02-01T12:47:33;7.00;99.90
26952;DHT22;14507;52.418;13.398;2023-02-01T12:52:42;6.90;99.90
26952;DHT22;14507;52.418;13.398;2023-02-01T12:57:43;6.90;99.90
26952;DHT22;14507;52.418;13.398;2023-02-01T13:00:30;6.90;99.90
26952;DHT22;14507;52.418;13.398;2023-02-01T13:03:03;6.80;99.90
26952;DHT22;14507;52.418;13.398;2023-02-01T13:06:01;6.80;99.90
26952;DHT22;14507;52.418;13.398;2023-02-01T13:11:20;6.80;99.90
26952;DHT22;14507;52.418;13.398;2023-02-01T13:16:43;6.70;99.90
26952;DHT22;14507;52.418;13.398;2023-02-01T13:22:43;6.80;99.90
26952;DHT22;14507;52.418;13.398;2023-02-01T13:25:35;6.80;99.90
26952;DHT22;14507;52.418;13.398;2023-02-01T13:28:17;6.80;99.90
26952;DHT22;14507;52.418;13.398;2023-02-01T13:44:58;6.90;99.90
26952;DHT22;14507;52.418;13.398;2023-02-01T13:47:29;6.80;99.90
26952;DHT22;14507;52.418;13.398;2023-02-01T13:49:58;6.80;99.90
26952;DHT22;14507;52.418;13.398;2023-02-01T13:52:36;6.80;99.90
26952;DHT22;14507;52.418;13.398;2023-02-01T13:55:23;6.80;99.90
26952;DHT22;14507;52.418;13.398;2023-02-01T13:57:58;6.80;99.90
26952;DHT22;14507;52.418;13.398;2023-02-01T14:00:36;6.80;99.90
26952;DHT22;14507;52.418;13.398;2023-02-01T14:10:54;6.80;99.90
26952;DHT22;14507;52.418;13.398;2023-02-01T14:13:34;6.80;99.90
26952;DHT22;14507;52.418;13.398;2023-02-01T14:21:25;6.80;99.90
26952;DHT22;14507;52.418;13.398;2023-02-01T14:26:24;6.70;99.90
26952;DHT22;14507;52.418;13.398;2023-02-01T14:28:58;6.70;99.90
26952;DHT22;14507;52.418;13.398;2023-02-01T14:31:36;6.70;99.90
26952;DHT22;14507;52.418;13.398;2023-02-01T14:34:30;6.70;99.90
26952;DHT22;14507;52.418;13.398;2023-02-01T14:37:00;6.70;99.90
26952;DHT22;14507;52.418;13.398;2023-02-01T14:42:01;6.60;99.90
26952;DHT22;14507;52.418;13.398;2023-02-01T14:44:31;6.60;99.90
26952;DHT22;14507;52.418;13.398;2023-02-01T14:47:10;6.60;99.90
26952;DHT22;14507;52.418;13.398;2023-02-01T14:50:03;6.60;99.90
26952;DHT22;14507;52.418;13.398;2023-02-01T14:52:33;6.70;99.90
26952;DHT22;14507;52.418;13.398;2023-02-01T14:55:04;6.70;99.90
26952;DHT22;14507;52.418;13.398;2023-02-01T14:57:34;6.60;99.90
26952;DHT22;14507;52.418;13.398;2023-02-01T15:00:25;6.70;99.90
26952;DHT22;14507;52.418;13.398;2023-02-01T15:02:53;6.70;99.90
26952;DHT22;14507;52.418;13.398;2023-02-01T15:05:28;6.70;99.90
26952;DHT22;14507;52.418;13.398;2023-02-01T15:08:03;6.70;99.90
26952;DHT22;14507;52.418;13.398;2023-02-01T15:10:31;6.70;99.90
26952;DHT22;14507;52.418;13.398;2023-02-01T15:12:58;6.70;99.90
26952;DHT22;14507;52.418;13.398;2023-02-01T15:15:24;6.70;99.90
26952;DHT22;14507;52.418;13.398;2023-02-01T15:17:52;6.60;99.90
26952;DHT22;14507;52.418;13.398;2023-02-01T15:20:25;6.60;99.90
26952;DHT22;14507;52.418;13.398;2023-02-01T15:22:59;6.40;99.90
26952;DHT22;14507;52.418;13.398;2023-02-01T15:25:29;6.30;99.90
26952;DHT22;14507;52.418;13.398;2023-02-01T15:27:56;6.20;99.90
26952;DHT22;14507;52.418;13.398;2023-02-01T15:30:28;6.10;99.90
26952;DHT22;14507;52.418;13.398;2023-02-01T15:33:16;5.90;99.90
26952;DHT22;14507;52.418;13.398;2023-02-01T15:35:47;5.80;99.90
26952;DHT22;14507;52.418;13.398;2023-02-01T15:40:59;5.70;99.90
26952;DHT22;14507;52.418;13.398;2023-02-01T15:43:26;5.60;99.90
26952;DHT22;14507;52.418;13.398;2023-02-01T15:45:55;5.50;99.90
26952;DHT22;14507;52.418;13.398;2023-02-01T15:48:24;5.50;99.90
26952;DHT22;14507;52.418;13.398;2023-02-01T15:50:51;5.50;99.90
26952;DHT22;14507;52.418;13.398;2023-02-01T15:53:22;5.40;99.90
26952;DHT22;14507;52.418;13.398;2023-02-01T15:55:53;5.40;99.90
26952;DHT22;14507;52.418;13.398;2023-02-01T15:58:22;5.40;99.90
26952;DHT22;14507;52.418;13.398;2023-02-01T16:00:52;5.30;99.90
26952;DHT22;14507;52.418;13.398;2023-02-01T16:03:41;5.30;99.90
26952;DHT22;14507;52.418;13.398;2023-02-01T16:06:26;5.20;99.90
26952;DHT22;14507;52.418;13.398;2023-02-01T16:14:14;5.20;99.90
26952;DHT22;14507;52.418;13.398;2023-02-01T16:16:41;5.10;99.90
26952;DHT22;14507;52.418;13.398;2023-02-01T16:19:06;5.00;99.90
26952;DHT22;14507;52.418;13.398;2023-02-01T16:21:32;5.00;99.90
26952;DHT22;14507;52.418;13.398;2023-02-01T16:23:57;5.40;99.90
26952;DHT22;14507;52.418;13.398;2023-02-01T16:26:29;4.80;99.90
26952;DHT22;14507;52.418;13.398;2023-02-01T16:28:55;4.70;99.90
26952;DHT22;14507;52.418;13.398;2023-02-01T16:31:27;4.60;99.90
26952;DHT22;14507;52.418;13.398;2023-02-01T16:33:53;4.50;99.90
26952;DHT22;14507;52.418;13.398;2023-02-01T16:36:19;4.40;99.90
26952;DHT22;14507;52.418;13.398;2023-02-01T16:38:46;4.30;99.90
26952;DHT22;14507;52.418;13.398;2023-02-01T16:41:17;4.30;99.90
26952;DHT22;14507;52.418;13.398;2023-02-01T16:43:43;4.20;99.90
26952;DHT22;14507;52.418;13.398;2023-02-01T16:46:17;4.20;99.90
26952;DHT22;14507;52.418;13.398;2023-02-01T16:48:48;4.20;99.90
26952;DHT22;14507;52.418;13.398;2023-02-01T16:51:15;4.20;99.90
26952;DHT22;14507;52.418;13.398;2023-02-01T16:53:43;4.10;99.90
26952;DHT22;14507;52.418;13.398;2023-02-01T16:56:20;4.10;99.90
26952;DHT22;14507;52.418;13.398;2023-02-01T16:58:47;4.10;99.90
26952;DHT22;14507;52.418;13.398;2023-02-01T17:01:14;4.00;99.90
26952;DHT22;14507;52.418;13.398;2023-02-01T17:03:41;4.00;99.90
26952;DHT22;14507;52.418;13.398;2023-02-01T17:06:10;4.00;99.90
26952;DHT22;14507;52.418;13.398;2023-02-01T17:08:40;4.00;99.90
26952;DHT22;14507;52.418;13.398;2023-02-01T17:11:06;4.00;99.90
26952;DHT22;14507;52.418;13.398;2023-02-01T17:13:33;4.00;99.90
26952;DHT22;14507;52.418;13.398;2023-02-01T17:18:43;4.00;99.90
26952;DHT22;14507;52.418;13.398;2023-02-01T17:21:10;3.90;99.90
26952;DHT22;14507;52.418;13.398;2023-02-01T17:23:36;4.00;99.90
26952;DHT22;14507;52.418;13.398;2023-02-01T17:26:02;4.00;99.90
26952;DHT22;14507;52.418;13.398;2023-02-01T17:28:28;4.00;99.90
26952;DHT22;14507;52.418;13.398;2023-02-01T17:30:54;4.00;99.90
26952;DHT22;14507;52.418;13.398;2023-02-01T17:33:26;4.10;99.90
26952;DHT22;14507;52.418;13.398;2023-02-01T17:35:54;4.10;99.90
26952;DHT22;14507;52.418;13.398;2023-02-01T17:38:20;4.00;99.90
26952;DHT22;14507;52.418;13.398;2023-02-01T17:40:46;4.10;99.90
26952;DHT22;14507;52.418;13.398;2023-02-01T17:43:21;4.10;99.90
26952;DHT22;14507;52.418;13.398;2023-02-01T17:46:19;4.00;99.90
26952;DHT22;14507;52.418;13.398;2023-02-01T17:48:54;4.10;99.90
26952;DHT22;14507;52.418;13.398;2023-02-01T17:51:22;4.10;99.90
26952;DHT22;14507;52.418;13.398;2023-02-01T17:53:49;4.10;99.90
26952;DHT22;14507;52.418;13.398;2023-02-01T17:56:17;4.10;99.90
26952;DHT22;14507;52.418;13.398;2023-02-01T17:58:43;4.20;99.90
26952;DHT22;14507;52.418;13.398;2023-02-01T18:01:22;4.30;99.90
26952;DHT22;14507;52.418;13.398;2023-02-01T18:03:49;4.20;99.90
26952;DHT22;14507;52.418;13.398;2023-02-01T18:06:17;4.20;99.90
26952;DHT22;14507;52.418;13.398;2023-02-01T18:08:43;4.20;99.90
26952;DHT22;14507;52.418;13.398;2023-02-01T18:11:20;4.30;99.90
26952;DHT22;14507;52.418;13.398;2023-02-01T18:13:46;4.30;99.90
26952;DHT22;14507;52.418;13.398;2023-02-01T18:16:19;4.30;99.90
26952;DHT22;14507;52.418;13.398;2023-02-01T18:18:45;4.30;99.90
26952;DHT22;14507;52.418;13.398;2023-02-01T18:21:11;4.30;99.90
26952;DHT22;14507;52.418;13.398;2023-02-01T18:23:37;4.30;99.90
26952;DHT22;14507;52.418;13.398;2023-02-01T18:26:03;4.30;99.90